Time;durP1;ratioP1;P1;durP2;ratioP2;P2;SDS_P1;SDS_P2;PMS_P1;PMS_P2;Temp;Humidity;BMP_temperature;BMP_pressure;BME280_temperature;BME280_humidity;BME280_pressure;Samples;Min_cycle;Max_cycle;Signal;HPM_P1;HPM_P2
2021/05/25 00:00:24;;;;;;;8.05;2.78;;;487.00;1843.20;;;;;;5053008;28;20049;-53
2021/05/25 00:02:51;;;;;;;8.45;2.88;;;486.90;1843.20;;;;;;5052948;28;20047;-54
2021/05/25 00:05:21;;;;;;;5.15;2.50;;;486.90;1843.20;;;;;;5052898;28;20032;-53
2021/05/25 00:07:47;;;;;;;7.00;2.60;;;487.00;1843.20;;;;;;5053639;28;20472;-53
2021/05/25 00:10:14;;;;;;;6.35;3.03;;;487.10;1843.20;;;;;;5056618;28;20029;-53
2021/05/25 00:12:40;;;;;;;9.65;2.53;;;487.10;1843.20;;;;;;5056581;28;20040;-53
2021/05/25 00:15:15;;;;;;;5.75;2.95;;;487.10;1843.20;;;;;;5056520;28;20025;-53
2021/05/25 00:17:41;;;;;;;7.88;2.97;;;487.10;1843.20;;;;;;5054602;28;20021;-53
2021/05/25 00:20:09;;;;;;;8.68;3.15;;;487.10;1843.20;;;;;;5054508;28;20163;-53
2021/05/25 00:22:38;;;;;;;6.45;2.90;;;487.10;1843.20;;;;;;5054524;28;20032;-53
2021/05/25 00:25:04;;;;;;;10.40;2.65;;;487.10;1843.20;;;;;;5054451;28;20385;-54
2021/05/25 00:27:30;;;;;;;12.25;3.38;;;487.10;1843.20;;;;;;5054363;28;20036;-53
2021/05/25 00:29:55;;;;;;;6.13;2.92;;;487.20;1843.20;;;;;;5054385;28;20025;-53
2021/05/25 00:32:21;;;;;;;10.73;2.90;;;487.20;1843.20;;;;;;5054893;28;20090;-53
2021/05/25 00:34:47;;;;;;;10.63;2.92;;;487.20;1843.20;;;;;;5056421;28;20107;-53
2021/05/25 00:37:13;;;;;;;8.65;3.10;;;487.20;1843.20;;;;;;5056427;28;20029;-53
2021/05/25 00:39:39;;;;;;;7.25;3.38;;;487.20;1843.20;;;;;;5055862;28;20053;-53
2021/05/25 00:42:05;;;;;;;6.72;2.58;;;487.20;1843.20;;;;;;5056337;28;20071;-53
2021/05/25 00:44:31;;;;;;;9.82;2.70;;;487.20;1843.20;;;;;;5055999;28;20036;-53
2021/05/25 00:46:57;;;;;;;12.27;3.28;;;487.20;1817.60;;;;;;5056470;28;20076;-53
2021/05/25 00:49:23;;;;;;;9.27;2.75;;;487.20;1817.60;;;;;;5055925;28;20048;-53
2021/05/25 00:51:49;;;;;;;10.20;2.72;;;487.30;1817.60;;;;;;5056108;28;20441;-53
2021/05/25 00:54:15;;;;;;;7.03;2.58;;;487.30;1817.60;;;;;;5055753;28;20048;-53
2021/05/25 00:56:41;;;;;;;8.55;2.83;;;512.00;1817.60;;;;;;5055792;28;20028;-53
2021/05/25 00:59:07;;;;;;;11.18;2.88;;;512.00;1817.60;;;;;;5055769;28;20040;-53
2021/05/25 01:01:33;;;;;;;10.40;2.72;;;487.30;1792.00;;;;;;5055600;28;20521;-53
2021/05/25 01:04:00;;;;;;;8.98;2.67;;;512.00;1792.00;;;;;;5055881;28;20060;-53
2021/05/25 01:06:26;;;;;;;9.23;2.60;;;487.30;1792.00;;;;;;5055800;28;20041;-53
2021/05/25 01:08:52;;;;;;;4.28;2.28;;;512.00;1792.00;;;;;;5055625;28;20479;-53
2021/05/25 01:11:20;;;;;;;6.78;2.50;;;487.30;1792.00;;;;;;5055782;28;20029;-53
2021/05/25 01:13:55;;;;;;;7.22;2.55;;;487.30;1792.00;;;;;;5037568;28;20029;-53
2021/05/25 01:16:23;;;;;;;7.05;2.85;;;487.30;1792.00;;;;;;5055451;28;20387;-53
2021/05/25 01:18:49;;;;;;;6.07;2.42;;;512.00;1792.00;;;;;;5054949;28;20046;-59
2021/05/25 01:21:16;;;;;;;6.90;3.03;;;512.00;1792.00;;;;;;5055348;28;20029;-53
2021/05/25 01:23:42;;;;;;;8.55;3.28;;;512.00;1792.00;;;;;;5055580;28;20122;-53
2021/05/25 01:26:08;;;;;;;7.38;2.60;;;512.00;1792.00;;;;;;5055144;28;20021;-53
2021/05/25 01:28:36;;;;;;;8.77;2.85;;;512.00;1792.00;;;;;;5055465;28;20024;-53
2021/05/25 01:31:03;;;;;;;8.07;2.65;;;487.30;1792.00;;;;;;5055129;28;20025;-53
2021/05/25 01:33:31;;;;;;;9.25;3.00;;;512.00;1792.00;;;;;;5055155;28;20385;-53
2021/05/25 01:35:58;;;;;;;6.55;2.45;;;512.00;1792.00;;;;;;5055069;28;20423;-53
2021/05/25 01:38:25;;;;;;;11.23;2.45;;;512.00;1792.00;;;;;;5054722;28;20045;-53
2021/05/25 01:40:54;;;;;;;7.10;2.40;;;512.00;1792.00;;;;;;5037072;28;20029;-55
2021/05/25 01:43:20;;;;;;;7.18;2.58;;;512.00;1792.00;;;;;;5055194;28;20029;-53
2021/05/25 01:45:45;;;;;;;9.18;2.30;;;512.00;1766.40;;;;;;5054883;28;20456;-54
2021/05/25 01:48:12;;;;;;;11.30;2.75;;;512.00;1766.40;;;;;;5054712;28;20029;-53
2021/05/25 01:50:40;;;;;;;9.98;2.42;;;512.00;1766.40;;;;;;5055051;28;20028;-53
2021/05/25 01:53:09;;;;;;;5.72;2.13;;;512.00;1766.40;;;;;;5054738;28;20013;-53
2021/05/25 01:55:47;;;;;;;8.02;2.03;;;512.00;1766.40;;;;;;5054967;28;20021;-53
2021/05/25 01:58:17;;;;;;;12.02;2.40;;;512.00;1766.40;;;;;;5054605;28;20485;-53
2021/05/25 02:00:45;;;;;;;6.75;2.00;;;512.00;1740.80;;;;;;5054811;28;20033;-58
2021/05/25 02:03:12;;;;;;;17.70;2.58;;;512.00;1740.80;;;;;;5054538;28;20039;-53
2021/05/25 02:05:38;;;;;;;12.07;2.20;;;512.00;1740.80;;;;;;5054734;28;20025;-53
2021/05/25 02:08:06;;;;;;;8.82;1.95;;;512.00;1740.80;;;;;;5054306;28;20481;-53
2021/05/25 02:10:39;;;;;;;10.13;1.92;;;512.00;1715.20;;;;;;5054345;28;20087;-53
2021/05/25 02:13:07;;;;;;;12.60;2.15;;;512.00;1715.20;;;;;;5054338;28;20029;-53
2021/05/25 02:15:34;;;;;;;21.05;2.00;;;512.10;1689.60;;;;;;5036408;28;20029;-54
2021/05/25 02:18:22;;;;;;;28.45;3.03;;;512.10;1689.60;;;;;;5054330;28;20021;-53
2021/05/25 02:20:50;;;;;;;11.65;2.50;;;512.10;1664.00;;;;;;5054462;28;20056;-53
2021/05/25 02:23:16;;;;;;;4.47;1.90;;;512.10;1689.60;;;;;;5054173;28;20051;-53
2021/05/25 02:25:43;;;;;;;9.57;1.88;;;512.10;1664.00;;;;;;5054098;28;20453;-53
2021/05/25 02:28:10;;;;;;;9.23;2.55;;;512.10;1664.00;;;;;;5054225;28;20059;-53
2021/05/25 02:30:38;;;;;;;5.85;1.90;;;512.10;1664.00;;;;;;5053897;28;20044;-53
2021/05/25 02:33:07;;;;;;;11.00;1.85;;;512.10;1689.60;;;;;;5053958;28;20017;-53
2021/05/25 02:35:34;;;;;;;12.55;2.20;;;512.10;1664.00;;;;;;5054176;28;20021;-54
2021/05/25 02:38:00;;;;;;;13.73;1.58;;;512.10;1664.00;;;;;;5053644;28;20079;-53
2021/05/25 02:40:26;;;;;;;9.40;2.05;;;512.10;1664.00;;;;;;5054116;28;20059;-53
2021/05/25 02:42:53;;;;;;;29.17;3.78;;;512.00;1664.00;;;;;;5053761;28;20033;-53
2021/05/25 02:45:19;;;;;;;7.97;2.22;;;512.10;1664.00;;;;;;5053753;28;20032;-53
2021/05/25 02:47:45;;;;;;;6.53;2.20;;;512.00;1664.00;;;;;;5053643;28;20037;-53
2021/05/25 02:50:12;;;;;;;4.32;1.77;;;512.00;1664.00;;;;;;5053625;28;20024;-53
2021/05/25 02:52:40;;;;;;;6.00;2.28;;;512.00;1664.00;;;;;;5053714;28;20092;-53
2021/05/25 02:55:12;;;;;;;6.43;2.05;;;512.00;1689.60;;;;;;5053905;28;20462;-53
2021/05/25 02:57:38;;;;;;;7.20;2.20;;;512.00;1689.60;;;;;;5053803;28;20033;-53
2021/05/25 03:00:14;;;;;;;11.98;2.65;;;512.00;1689.60;;;;;;5054103;28;20028;-53
2021/05/25 03:02:40;;;;;;;8.90;2.58;;;512.00;1689.60;;;;;;5054168;28;20466;-53
2021/05/25 03:05:07;;;;;;;12.55;2.60;;;512.00;1689.60;;;;;;5053405;28;20114;-53
2021/05/25 03:07:34;;;;;;;8.75;2.80;;;512.00;1689.60;;;;;;5053636;28;20504;-53
2021/05/25 03:10:00;;;;;;;14.55;3.20;;;512.00;1689.60;;;;;;5053455;28;20025;-53
2021/05/25 03:12:26;;;;;;;11.27;3.05;;;512.00;1689.60;;;;;;5053296;28;20111;-53
2021/05/25 03:14:52;;;;;;;10.15;3.20;;;512.00;1689.60;;;;;;5053422;28;20082;-53
2021/05/25 03:17:22;;;;;;;7.72;2.40;;;512.00;1715.20;;;;;;5053340;28;20032;-53
2021/05/25 03:19:48;;;;;;;6.60;2.58;;;512.00;1689.60;;;;;;5053307;28;20017;-53
2021/05/25 03:22:14;;;;;;;9.23;2.53;;;512.00;1715.20;;;;;;5053268;28;20029;-53
2021/05/25 03:24:40;;;;;;;12.32;2.53;;;512.00;1715.20;;;;;;5053299;28;20048;-62
2021/05/25 03:27:06;;;;;;;8.68;2.10;;;512.00;1715.20;;;;;;5053422;28;20037;-54
2021/05/25 03:29:32;;;;;;;13.23;2.92;;;512.00;1715.20;;;;;;5053527;28;20021;-53
2021/05/25 03:31:58;;;;;;;8.60;2.83;;;487.30;1766.40;;;;;;5053462;28;20021;-53
2021/05/25 03:34:24;;;;;;;9.88;2.97;;;512.00;1766.40;;;;;;5053494;28;20013;-54
2021/05/25 03:36:49;;;;;;;10.55;3.20;;;487.30;1766.40;;;;;;5053434;28;20029;-53
2021/05/25 03:39:15;;;;;;;8.70;3.20;;;487.30;1792.00;;;;;;5053064;28;20117;-54
2021/05/25 03:41:41;;;;;;;11.30;4.10;;;487.20;1817.60;;;;;;5053509;28;20159;-53
2021/05/25 03:44:13;;;;;;;10.60;4.43;;;487.20;1843.20;;;;;;5057132;28;20025;-53
2021/05/25 03:46:42;;;;;;;12.70;4.40;;;487.10;1894.40;;;;;;5057342;28;20029;-61
2021/05/25 03:49:09;;;;;;;10.70;5.63;;;487.00;1920.00;;;;;;5057082;28;20035;-53
2021/05/25 03:51:35;;;;;;;8.55;5.20;;;486.80;1920.00;;;;;;5057396;28;20025;-53
2021/05/25 03:54:07;;;;;;;8.20;5.40;;;486.90;1920.00;;;;;;5057244;28;20036;-53
2021/05/25 03:56:46;;;;;;;7.55;5.20;;;486.90;1920.00;;;;;;5056951;28;20040;-53
2021/05/25 03:59:12;;;;;;;7.60;5.57;;;486.80;1945.60;;;;;;5057209;28;20059;-53
2021/05/25 04:01:38;;;;;;;8.18;5.40;;;486.80;1945.60;;;;;;5057114;28;20424;-53
2021/05/25 04:04:04;;;;;;;8.40;6.10;;;486.80;1971.20;;;;;;5056779;28;20060;-53
2021/05/25 04:06:30;;;;;;;11.20;6.38;;;486.80;1945.60;;;;;;5056706;28;20492;-53
2021/05/25 04:08:56;;;;;;;7.22;5.93;;;486.70;1945.60;;;;;;5056976;28;20033;-53
2021/05/25 04:11:22;;;;;;;12.80;7.57;;;486.60;1971.20;;;;;;5056682;28;20027;-53
2021/05/25 04:13:48;;;;;;;11.73;8.13;;;486.50;1971.20;;;;;;5056626;28;20108;-53
2021/05/25 04:16:14;;;;;;;16.35;11.43;;;486.60;1971.20;;;;;;5056575;28;20025;-53
2021/05/25 04:18:41;;;;;;;21.08;10.82;;;486.50;1996.80;;;;;;5056478;28;20029;-53
2021/05/25 04:21:08;;;;;;;14.43;9.60;;;486.50;1996.80;;;;;;5056465;28;20029;-53
2021/05/25 04:23:35;;;;;;;10.70;8.70;;;486.50;1996.80;;;;;;5056326;28;20064;-53
2021/05/25 04:26:01;;;;;;;11.98;9.10;;;486.60;1971.20;;;;;;5056366;28;20102;-53
2021/05/25 04:28:27;;;;;;;17.75;9.07;;;486.70;1971.20;;;;;;5056570;28;20478;-54
2021/05/25 04:30:53;;;;;;;16.45;9.25;;;486.80;1971.20;;;;;;5056591;28;20092;-53
2021/05/25 04:33:20;;;;;;;12.55;8.10;;;486.80;1971.20;;;;;;5056488;28;20021;-55
2021/05/25 04:35:47;;;;;;;11.13;9.00;;;486.70;1971.20;;;;;;5055558;28;20021;-54
2021/05/25 04:38:13;;;;;;;12.52;8.38;;;486.60;1971.20;;;;;;5055459;28;20044;-53
2021/05/25 04:40:44;;;;;;;11.57;8.30;;;486.60;1971.20;;;;;;5055765;28;20094;-53
2021/05/25 04:43:10;;;;;;;10.38;6.93;;;486.70;1971.20;;;;;;5056368;28;20091;-53
2021/05/25 04:45:38;;;;;;;8.30;7.03;;;486.80;1945.60;;;;;;5055959;28;20484;-53
2021/05/25 04:48:06;;;;;;;11.02;6.30;;;486.80;1971.20;;;;;;5055842;28;20033;-53
2021/05/25 04:50:32;;;;;;;7.93;6.60;;;486.80;1971.20;;;;;;5055549;28;20032;-58
2021/05/25 04:52:58;;;;;;;6.97;6.28;;;486.80;1971.20;;;;;;5055843;28;20021;-53
2021/05/25 04:55:24;;;;;;;15.48;7.70;;;486.80;1971.20;;;;;;5055034;28;20028;-60
2021/05/25 04:57:51;;;;;;;15.90;11.35;;;486.80;1971.20;;;;;;5055485;28;20090;-54
2021/05/25 05:00:21;;;;;;;25.80;18.75;;;486.90;1945.60;;;;;;5055240;28;20155;-53
2021/05/25 05:02:47;;;;;;;14.27;10.70;;;486.80;1996.80;;;;;;5055506;28;20098;-54
2021/05/25 05:05:14;;;;;;;13.05;8.63;;;486.90;1971.20;;;;;;5055155;28;20055;-55
2021/05/25 05:07:41;;;;;;;13.88;10.82;;;486.90;1996.80;;;;;;5055265;28;20033;-65
2021/05/25 05:10:07;;;;;;;12.65;8.98;;;486.90;1996.80;;;;;;5055200;28;20028;-54
2021/05/25 05:12:33;;;;;;;13.15;6.70;;;486.90;1971.20;;;;;;5055625;28;20060;-54
2021/05/25 05:14:59;;;;;;;9.73;7.07;;;486.90;1971.20;;;;;;5055328;28;20029;-54
2021/05/25 05:17:27;;;;;;;10.48;7.28;;;486.90;1996.80;;;;;;5055369;28;20028;-54
2021/05/25 05:19:54;;;;;;;9.30;7.30;;;486.90;1996.80;;;;;;5054751;28;20116;-53
2021/05/25 05:22:20;;;;;;;9.75;6.43;;;486.90;1971.20;;;;;;5054876;28;20043;-62
2021/05/25 05:24:47;;;;;;;9.98;7.43;;;487.00;1971.20;;;;;;5054391;28;20032;-56
2021/05/25 05:27:12;;;;;;;10.80;7.13;;;487.00;1971.20;;;;;;5054408;28;20029;-54
2021/05/25 05:29:38;;;;;;;8.32;7.28;;;487.00;1971.20;;;;;;5054612;28;20520;-54
2021/05/25 05:32:05;;;;;;;10.05;7.18;;;487.10;1971.20;;;;;;5053358;28;20025;-54
2021/05/25 05:34:31;;;;;;;9.40;7.78;;;487.10;1971.20;;;;;;5052655;28;20021;-55
2021/05/25 05:36:57;;;;;;;14.50;8.38;;;487.10;1971.20;;;;;;5053370;28;20027;-53
2021/05/25 05:39:23;;;;;;;11.02;7.63;;;487.10;1996.80;;;;;;5052919;28;20258;-53
2021/05/25 05:41:48;;;;;;;14.07;8.00;;;487.20;1971.20;;;;;;5053073;28;20560;-53
2021/05/25 05:44:14;;;;;;;14.30;8.82;;;487.20;1945.60;;;;;;5052933;28;20021;-53
2021/05/25 05:46:40;;;;;;;10.77;7.05;;;487.30;1971.20;;;;;;5053061;28;20070;-54
2021/05/25 05:49:06;;;;;;;24.65;9.45;;;512.00;1945.60;;;;;;5054841;28;20108;-53
2021/05/25 05:51:32;;;;;;;11.57;8.43;;;512.00;1945.60;;;;;;5054805;28;20013;-53
2021/05/25 05:53:59;;;;;;;15.63;7.70;;;512.00;1945.60;;;;;;5054992;28;20029;-53
2021/05/25 05:56:25;;;;;;;23.80;10.68;;;512.10;1945.60;;;;;;5054730;28;20032;-53
2021/05/25 05:58:51;;;;;;;19.20;16.02;;;512.10;1945.60;;;;;;5054580;28;20033;-54
2021/05/25 06:01:18;;;;;;;122.22;42.08;;;512.20;1945.60;;;;;;5054639;28;20107;-53
2021/05/25 06:03:44;;;;;;;19.48;10.07;;;512.30;1945.60;;;;;;5054797;28;20342;-53
2021/05/25 06:06:12;;;;;;;9.77;6.28;;;512.30;1945.60;;;;;;5053292;28;20492;-53
2021/05/25 06:08:39;;;;;;;13.73;6.97;;;512.50;1920.00;;;;;;5054709;28;20043;-53
2021/05/25 06:11:05;;;;;;;11.07;6.32;;;512.50;1945.60;;;;;;5054410;28;20017;-62
2021/05/25 06:13:31;;;;;;;8.13;6.07;;;512.50;1920.00;;;;;;5054960;28;20028;-53
2021/05/25 06:16:02;;;;;;;13.70;6.13;;;512.50;1920.00;;;;;;5054314;28;20025;-53
2021/05/25 06:18:29;;;;;;;11.68;6.00;;;512.70;1920.00;;;;;;5054285;28;20503;-53
2021/05/25 06:20:56;;;;;;;19.23;8.55;;;537.60;1920.00;;;;;;5054455;28;20037;-53
2021/05/25 06:23:22;;;;;;;11.38;6.25;;;512.90;1894.40;;;;;;5054446;28;20068;-53
2021/05/25 06:25:48;;;;;;;10.25;6.13;;;512.90;1920.00;;;;;;5054355;28;20075;-53
2021/05/25 06:28:15;;;;;;;13.55;6.30;;;537.60;1920.00;;;;;;5053828;28;20144;-55
2021/05/25 06:30:41;;;;;;;21.08;6.78;;;537.70;1894.40;;;;;;5053933;28;20028;-54
2021/05/25 06:33:07;;;;;;;12.85;6.07;;;537.90;1894.40;;;;;;5053918;28;20029;-54
2021/05/25 06:35:34;;;;;;;13.70;5.70;;;538.00;1894.40;;;;;;5053890;28;20063;-54
2021/05/25 06:38:01;;;;;;;8.90;6.10;;;538.10;1868.80;;;;;;5051975;28;20029;-53
2021/05/25 06:40:27;;;;;;;8.70;6.03;;;538.20;1868.80;;;;;;5051812;28;20120;-53
2021/05/25 06:42:53;;;;;;;9.88;6.07;;;538.30;1894.40;;;;;;5052011;28;20079;-53
2021/05/25 06:45:19;;;;;;;12.48;5.57;;;538.40;1868.80;;;;;;5051843;28;20104;-53
2021/05/25 06:47:46;;;;;;;11.95;6.30;;;538.50;1843.20;;;;;;5051990;28;20043;-53
2021/05/25 06:50:14;;;;;;;10.32;5.70;;;563.20;1894.40;;;;;;5052457;28;20025;-54
2021/05/25 06:52:40;;;;;;;7.47;5.07;;;563.20;1868.80;;;;;;5053235;28;20470;-53
2021/05/25 06:55:07;;;;;;;10.57;5.80;;;563.40;1868.80;;;;;;5053883;28;20021;-54
2021/05/25 06:57:33;;;;;;;18.90;6.32;;;563.40;1843.20;;;;;;5053837;28;20021;-53
2021/05/25 06:59:59;;;;;;;13.15;5.43;;;563.50;1843.20;;;;;;5053584;28;20024;-53
2021/05/25 07:02:25;;;;;;;18.75;5.70;;;563.60;1817.60;;;;;;5052933;28;20033;-53
2021/05/25 07:04:56;;;;;;;12.13;5.95;;;563.60;1817.60;;;;;;5053106;28;20424;-55
2021/05/25 07:07:22;;;;;;;16.77;6.50;;;563.70;1843.20;;;;;;5052817;28;20037;-53
2021/05/25 07:09:48;;;;;;;10.80;6.00;;;563.80;1817.60;;;;;;5051560;28;20385;-54
2021/05/25 07:12:14;;;;;;;12.60;5.82;;;563.90;1843.20;;;;;;5051341;28;20028;-53
2021/05/25 07:14:41;;;;;;;8.13;5.78;;;563.90;1817.60;;;;;;5051447;28;20028;-53
2021/05/25 07:17:07;;;;;;;8.48;5.93;;;563.90;1817.60;;;;;;5050978;28;20469;-53
2021/05/25 07:19:33;;;;;;;9.95;6.50;;;563.90;1817.60;;;;;;5051614;28;20392;-53
2021/05/25 07:22:00;;;;;;;15.57;8.45;;;564.00;1817.60;;;;;;5051756;28;20086;-53
2021/05/25 07:24:26;;;;;;;26.85;21.20;;;564.10;1817.60;;;;;;5052927;28;20060;-53
2021/05/25 07:26:52;;;;;;;74.13;32.53;;;564.10;1792.00;;;;;;5052889;28;20072;-53
2021/05/25 07:29:18;;;;;;;11.32;6.25;;;564.10;1792.00;;;;;;5053235;28;20021;-53
2021/05/25 07:31:44;;;;;;;9.55;6.07;;;564.10;1792.00;;;;;;5053056;28;20074;-53
2021/05/25 07:34:10;;;;;;;11.48;6.30;;;588.80;1766.40;;;;;;5053105;28;20017;-53
2021/05/25 07:36:36;;;;;;;11.23;5.43;;;588.80;1766.40;;;;;;5053456;28;20029;-58
2021/05/25 07:39:03;;;;;;;17.92;5.03;;;588.80;1766.40;;;;;;5052920;28;20123;-69
2021/05/25 07:41:29;;;;;;;8.15;4.57;;;588.80;1740.80;;;;;;5052659;28;20442;-59
2021/05/25 07:43:54;;;;;;;11.98;5.20;;;589.00;1689.60;;;;;;5051131;28;20026;-59
2021/05/25 07:46:24;;;;;;;10.88;5.60;;;588.90;1715.20;;;;;;5051104;28;20025;-59
2021/05/25 07:48:49;;;;;;;12.20;7.10;;;588.90;1689.60;;;;;;5051112;28;20033;-58
2021/05/25 07:51:16;;;;;;;15.02;7.72;;;588.90;1664.00;;;;;;5051119;28;20032;-59
2021/05/25 07:53:43;;;;;;;9.57;4.55;;;588.90;1664.00;;;;;;5051945;28;20060;-71
2021/05/25 07:56:09;;;;;;;20.85;10.48;;;588.90;1689.60;;;;;;5052972;28;20028;-59
2021/05/25 07:58:35;;;;;;;12.25;5.55;;;588.90;1689.60;;;;;;5052926;28;20029;-59
2021/05/25 08:01:02;;;;;;;11.85;6.05;;;589.00;1664.00;;;;;;5052982;28;20052;-58
2021/05/25 08:03:27;;;;;;;10.27;7.13;;;589.00;1689.60;;;;;;5052871;28;20110;-71
2021/05/25 08:05:54;;;;;;;13.07;6.13;;;589.00;1689.60;;;;;;5052750;28;20068;-62
2021/05/25 08:08:20;;;;;;;8.40;5.30;;;589.10;1689.60;;;;;;5052806;28;20048;-69
2021/05/25 08:10:46;;;;;;;32.58;14.05;;;589.00;1689.60;;;;;;5053149;28;20025;-59
2021/05/25 08:13:12;;;;;;;12.75;8.07;;;589.10;1664.00;;;;;;5052768;28;20466;-69
2021/05/25 08:15:40;;;;;;;7.30;4.20;;;589.10;1689.60;;;;;;5052714;28;20025;-58
2021/05/25 08:20:45;;;;;;;10.55;3.85;;;589.20;1689.60;;;;;;5053126;28;20454;-58
2021/05/25 08:23:13;;;;;;;6.47;3.55;;;589.20;1664.00;;;;;;5052865;28;20029;-58
2021/05/25 08:25:41;;;;;;;5.40;3.70;;;589.20;1689.60;;;;;;5052730;28;20021;-58
2021/05/25 08:28:09;;;;;;;10.55;4.35;;;589.20;1664.00;;;;;;5052640;28;20036;-59
2021/05/25 08:30:40;;;;;;;5.95;3.38;;;589.20;1664.00;;;;;;5055863;28;20029;-69
2021/05/25 08:33:07;;;;;;;11.95;3.65;;;589.20;1664.00;;;;;;5056147;28;20480;-58
2021/05/25 08:35:37;;;;;;;14.68;5.95;;;589.30;1638.40;;;;;;5056139;28;20028;-58
2021/05/25 08:38:05;;;;;;;14.52;5.78;;;589.30;1689.60;;;;;;5055870;28;20067;-58
2021/05/25 08:40:33;;;;;;;25.92;8.70;;;589.30;1664.00;;;;;;5056433;28;20045;-70
2021/05/25 08:43:00;;;;;;;20.17;11.85;;;589.40;1664.00;;;;;;5055313;28;20028;-58
2021/05/25 08:45:26;;;;;;;21.77;12.82;;;589.40;1587.20;;;;;;5056155;28;20032;-58
2021/05/25 08:47:54;;;;;;;34.65;29.70;;;589.40;1612.80;;;;;;5055799;28;20083;-59
2021/05/25 08:50:26;;;;;;;22.85;13.90;;;589.40;1612.80;;;;;;5056107;28;20362;-58
2021/05/25 08:52:57;;;;;;;27.65;7.88;;;589.40;1612.80;;;;;;5055473;28;20044;-61
2021/05/25 08:55:23;;;;;;;8.35;3.47;;;589.40;1587.20;;;;;;5055138;28;20017;-71
2021/05/25 08:57:49;;;;;;;15.38;3.30;;;589.50;1612.80;;;;;;5055018;28;20017;-73
2021/05/25 09:00:16;;;;;;;13.05;3.90;;;589.50;1587.20;;;;;;5055088;28;20028;-68
2021/05/25 09:02:42;;;;;;;11.68;3.75;;;589.50;1587.20;;;;;;5055108;28;20075;-73
2021/05/25 09:05:09;;;;;;;11.43;3.70;;;589.50;1561.60;;;;;;5055782;28;20087;-71
2021/05/25 09:07:38;;;;;;;9.73;3.70;;;589.60;1587.20;;;;;;5055485;28;20044;-68
2021/05/25 09:10:06;;;;;;;14.93;3.55;;;589.60;1587.20;;;;;;5055555;28;20100;-59
2021/05/25 09:12:37;;;;;;;9.85;2.90;;;589.60;1561.60;;;;;;5055417;28;20029;-73
2021/05/25 09:15:04;;;;;;;5.55;2.97;;;589.60;1561.60;;;;;;5055475;28;20066;-59
2021/05/25 09:17:30;;;;;;;16.48;5.10;;;589.60;1561.60;;;;;;5055764;28;20047;-72
2021/05/25 09:19:57;;;;;;;21.42;6.88;;;589.70;1587.20;;;;;;5056060;28;20029;-59
2021/05/25 09:22:24;;;;;;;18.95;6.10;;;589.70;1536.00;;;;;;5055246;28;20025;-67
2021/05/25 09:24:50;;;;;;;14.85;5.32;;;589.60;1561.60;;;;;;5054833;28;20082;-59
2021/05/25 09:27:32;;;;;;;18.23;12.93;;;589.60;1587.20;;;;;;5052157;28;20461;-58
2021/05/25 09:30:22;;;;;;;24.10;16.75;;;589.70;1561.60;;;;;;5055550;28;20048;-58
2021/05/25 09:32:53;;;;;;;19.85;8.40;;;589.70;1587.20;;;;;;5055469;28;20029;-58
2021/05/25 09:35:21;;;;;;;18.80;6.72;;;589.70;1561.60;;;;;;5055153;28;20025;-58
2021/05/25 09:37:52;;;;;;;10.43;3.72;;;589.70;1587.20;;;;;;5055065;28;20021;-59
2021/05/25 09:40:20;;;;;;;8.80;3.30;;;614.40;1587.20;;;;;;5054872;28;20095;-58
2021/05/25 09:42:47;;;;;;;9.27;4.07;;;614.40;1587.20;;;;;;5054963;28;20473;-59
2021/05/25 09:45:16;;;;;;;15.27;3.97;;;614.40;1587.20;;;;;;5054980;28;20159;-58
2021/05/25 09:47:53;;;;;;;19.58;4.22;;;614.40;1587.20;;;;;;5055067;28;20389;-58
2021/05/25 09:50:28;;;;;;;11.15;3.45;;;614.50;1587.20;;;;;;5054295;28;20028;-58
2021/05/25 09:53:06;;;;;;;19.67;3.85;;;614.50;1561.60;;;;;;5054914;28;20432;-58
2021/05/25 09:55:52;;;;;;;8.65;2.90;;;614.50;1561.60;;;;;;5054318;28;20458;-59
2021/05/25 09:58:21;;;;;;;6.20;3.35;;;614.50;1536.00;;;;;;5054224;28;20025;-58
2021/05/25 10:00:47;;;;;;;13.43;5.20;;;614.60;1587.20;;;;;;5054550;28;20477;-58
2021/05/25 10:03:21;;;;;;;11.15;3.92;;;614.70;1612.80;;;;;;5054650;28;20040;-58
2021/05/25 10:05:52;;;;;;;14.35;6.90;;;614.80;1587.20;;;;;;5055229;28;20031;-58
2021/05/25 10:08:22;;;;;;;13.20;6.10;;;614.80;1561.60;;;;;;5053280;28;20041;-59
2021/05/25 10:10:53;;;;;;;13.55;3.25;;;614.90;1561.60;;;;;;5050534;28;20021;-59
2021/05/25 10:13:20;;;;;;;8.60;3.50;;;614.90;1536.00;;;;;;5053239;28;20075;-59
2021/05/25 10:15:48;;;;;;;9.77;3.47;;;614.90;1536.00;;;;;;5049689;28;20009;-59
2021/05/25 10:21:00;;;;;;;38.40;17.88;;;614.90;1536.00;;;;;;5051416;28;20025;-59
2021/05/25 10:23:32;;;;;;;54.78;27.42;;;614.90;1536.00;;;;;;5049780;28;20028;-58
2021/05/25 10:26:00;;;;;;;18.02;7.45;;;615.00;1587.20;;;;;;5053138;28;20028;-59
2021/05/25 10:28:26;;;;;;;23.10;10.07;;;615.00;1510.40;;;;;;5052472;28;20124;-61
2021/05/25 10:30:56;;;;;;;22.38;7.57;;;615.00;1536.00;;;;;;5052776;28;20139;-59
2021/05/25 10:33:27;;;;;;;10.43;4.82;;;615.00;1510.40;;;;;;5042674;28;20044;-59
2021/05/25 10:35:58;;;;;;;10.35;3.58;;;615.00;1510.40;;;;;;5052688;28;20487;-59
2021/05/25 10:38:31;;;;;;;19.00;5.45;;;615.00;1510.40;;;;;;5051377;28;20049;-59
2021/05/25 10:40:59;;;;;;;9.45;3.97;;;615.00;1510.40;;;;;;5052081;28;20024;-58
2021/05/25 10:43:42;;;;;;;19.30;4.57;;;615.00;1536.00;;;;;;5050846;28;20096;-58
2021/05/25 10:46:11;;;;;;;;;;;615.00;1536.00;;;;;;5048681;28;20065;-59
2021/05/25 10:49:16;;;;;;;11.85;4.35;;;615.10;1484.80;;;;;;5050447;28;19912;-59
2021/05/25 10:51:49;;;;;;;8.48;3.60;;;614.90;1459.20;;;;;;5048467;28;20079;-59
2021/05/25 10:54:25;;;;;;;16.20;4.55;;;615.00;1484.80;;;;;;5049653;28;20362;-71
2021/05/25 10:56:52;;;;;;;31.48;6.10;;;615.00;1484.80;;;;;;5049013;28;20069;-59
2021/05/25 10:59:19;;;;;;;6.63;3.22;;;615.00;1510.40;;;;;;5052525;28;20016;-59
2021/05/25 11:01:58;;;;;;;7.47;3.50;;;615.00;1484.80;;;;;;5051948;28;20021;-60
2021/05/25 11:04:34;;;;;;;11.70;4.13;;;615.00;1484.80;;;;;;5051959;28;20029;-59
2021/05/25 11:07:01;;;;;;;9.25;2.97;;;615.10;1510.40;;;;;;5051920;28;20385;-59
2021/05/25 11:09:29;;;;;;;8.35;3.08;;;615.00;1459.20;;;;;;5049628;28;20017;-59
2021/05/25 11:12:14;;;;;;;11.27;3.50;;;615.00;1484.80;;;;;;5052199;28;20092;-59
2021/05/25 11:15:15;;;;;;;9.05;2.83;;;615.10;1510.40;;;;;;5051229;28;20021;-59
2021/05/25 11:17:46;;;;;;;11.48;3.17;;;615.10;1536.00;;;;;;5050566;28;20025;-59
2021/05/25 11:20:32;;;;;;;7.82;3.65;;;615.10;1536.00;;;;;;5049372;28;20017;-58
2021/05/25 11:22:57;;;;;;;10.65;3.55;;;615.10;1484.80;;;;;;5050124;28;20388;-59
2021/05/25 11:25:40;;;;;;;10.93;3.42;;;615.20;1510.40;;;;;;5051749;28;20053;-59
2021/05/25 11:28:06;;;;;;;9.10;3.25;;;615.20;1459.20;;;;;;5051598;28;20029;-59
2021/05/25 11:30:35;;;;;;;12.25;5.65;;;615.20;1459.20;;;;;;5051259;28;20382;-59
2021/05/25 11:33:01;;;;;;;18.38;4.15;;;615.30;1484.80;;;;;;5050653;28;20033;-59
2021/05/25 11:35:29;;;;;;;10.18;2.80;;;615.30;1459.20;;;;;;5048578;28;20045;-61
2021/05/25 11:37:58;;;;;;;12.23;3.58;;;615.30;1408.00;;;;;;5050948;28;20027;-59
2021/05/25 11:40:39;;;;;;;8.30;3.35;;;615.30;1459.20;;;;;;5051230;28;20068;-59
2021/05/25 11:43:06;;;;;;;7.47;3.30;;;640.00;1433.60;;;;;;5051062;28;20420;-59
2021/05/25 11:45:32;;;;;;;14.00;4.78;;;640.10;1459.20;;;;;;5051215;28;20465;-58
2021/05/25 11:48:00;;;;;;;10.95;2.65;;;640.10;1433.60;;;;;;5051599;28;20037;-58
2021/05/25 11:50:28;;;;;;;7.80;3.10;;;640.10;1382.40;;;;;;5051707;28;20032;-58
2021/05/25 11:52:55;;;;;;;17.98;2.80;;;640.10;1408.00;;;;;;5052775;28;20056;-59
2021/05/25 11:55:23;;;;;;;15.52;3.42;;;640.20;1408.00;;;;;;5051607;28;20473;-58
2021/05/25 11:57:51;;;;;;;7.63;2.90;;;640.20;1408.00;;;;;;5053235;28;20025;-58
2021/05/25 12:00:23;;;;;;;12.68;3.47;;;640.10;1382.40;;;;;;5053266;28;20025;-58
2021/05/25 12:02:52;;;;;;;7.40;3.17;;;640.10;1459.20;;;;;;5053910;28;20035;-58
2021/05/25 12:05:20;;;;;;;9.05;3.35;;;640.00;1459.20;;;;;;5057120;28;20025;-58
2021/05/25 12:07:49;;;;;;;7.90;3.58;;;615.20;1459.20;;;;;;5056866;28;20033;-58
2021/05/25 12:10:20;;;;;;;10.75;3.67;;;615.20;1484.80;;;;;;5056760;28;20025;-58
2021/05/25 12:12:47;;;;;;;7.63;3.72;;;615.20;1484.80;;;;;;5057321;28;20025;-58
2021/05/25 12:15:24;;;;;;;10.65;3.45;;;640.00;1484.80;;;;;;5056721;28;20103;-58
2021/05/25 12:17:55;;;;;;;13.27;3.92;;;640.10;1459.20;;;;;;5056972;28;20025;-59
2021/05/25 12:20:23;;;;;;;14.07;5.07;;;640.00;1484.80;;;;;;5056674;28;20358;-58